Forside
METAR-TAF:

METAR-TAF

Lufthavne :

Ashland, Kentucky, USA

Breddekreds: 38-33-16N, længdekreds: 082-44-17W, højde: 166 m

Aktuelle vejr

Denne rapport blev lavet for 29 minutter siden, kl. 17:56 UTC
Vind 8 kt fra sydvest med vindstød på up til 16 kt
Temperatur 12°C
Fugtighed 32%
Tryk 1021 hPa
Sigt: 16.1 km
Overskyet i en højde af 10000 ft

METAR: KDWU 231756Z AUTO 23008G16KT 10SM OVC100 12/M04 A3016 RMK AO2 SLP217 T01171044 10117 21061 58030

Tid: 13:25 (18:25 UTC)


TAF: fraværende

Vejrobservationer og prognoser fra mere end 4000 lufthavne (METAR og TAF).

De gule og røde prikker repræsenterer de meteorologiske stationer.

Flyt musen over at se navnet på stationen.

Så klik over at se vejr observationer og prognoser.

At skifte det kort: Klik på de grønne knapper med et sort kors for at zoome ind; på den grønne knap med en bindestreg for at zoome ud; eller på de grønne pile for tilstødende kort.


METAR-TAF: